sensor_id;sensor_type;location;lat;lon;timestamp;temperature;humidity
23283;DHT22;11810;51.178;3.878;2022-08-19T00:01:29;19.00;99.90
23283;DHT22;11810;51.178;3.878;2022-08-19T00:03:59;19.00;99.90
23283;DHT22;11810;51.178;3.878;2022-08-19T00:06:27;19.00;99.90
23283;DHT22;11810;51.178;3.878;2022-08-19T00:08:53;18.90;99.90
23283;DHT22;11810;51.178;3.878;2022-08-19T00:11:19;18.80;99.90
23283;DHT22;11810;51.178;3.878;2022-08-19T00:13:46;18.80;99.90
23283;DHT22;11810;51.178;3.878;2022-08-19T00:16:14;18.70;99.90
23283;DHT22;11810;51.178;3.878;2022-08-19T00:18:40;18.70;99.90
23283;DHT22;11810;51.178;3.878;2022-08-19T00:21:06;18.70;99.90
23283;DHT22;11810;51.178;3.878;2022-08-19T00:23:33;18.60;99.90
23283;DHT22;11810;51.178;3.878;2022-08-19T00:26:03;18.50;99.90
23283;DHT22;11810;51.178;3.878;2022-08-19T00:28:29;18.60;99.90
23283;DHT22;11810;51.178;3.878;2022-08-19T00:30:56;18.60;99.90
23283;DHT22;11810;51.178;3.878;2022-08-19T00:33:22;18.60;99.90
23283;DHT22;11810;51.178;3.878;2022-08-19T00:35:48;18.50;99.90
23283;DHT22;11810;51.178;3.878;2022-08-19T00:38:14;18.40;99.90
23283;DHT22;11810;51.178;3.878;2022-08-19T00:40:43;18.40;99.90
23283;DHT22;11810;51.178;3.878;2022-08-19T00:43:12;18.40;99.90
23283;DHT22;11810;51.178;3.878;2022-08-19T00:45:39;18.30;99.90
23283;DHT22;11810;51.178;3.878;2022-08-19T00:48:08;18.20;99.90
23283;DHT22;11810;51.178;3.878;2022-08-19T00:50:34;18.40;99.90
23283;DHT22;11810;51.178;3.878;2022-08-19T00:53:02;18.40;99.90
23283;DHT22;11810;51.178;3.878;2022-08-19T00:55:31;18.30;99.90
23283;DHT22;11810;51.178;3.878;2022-08-19T00:58:07;18.30;99.90
23283;DHT22;11810;51.178;3.878;2022-08-19T01:00:34;18.20;99.90
23283;DHT22;11810;51.178;3.878;2022-08-19T01:03:07;18.10;99.90
23283;DHT22;11810;51.178;3.878;2022-08-19T01:05:35;18.10;99.90
23283;DHT22;11810;51.178;3.878;2022-08-19T01:08:03;18.20;99.90
23283;DHT22;11810;51.178;3.878;2022-08-19T01:10:33;18.10;99.90
23283;DHT22;11810;51.178;3.878;2022-08-19T01:13:02;18.20;99.90
23283;DHT22;11810;51.178;3.878;2022-08-19T01:15:32;18.10;99.90
23283;DHT22;11810;51.178;3.878;2022-08-19T01:18:10;18.10;99.90
23283;DHT22;11810;51.178;3.878;2022-08-19T01:20:37;18.00;99.90
23283;DHT22;11810;51.178;3.878;2022-08-19T01:23:04;17.90;99.90
23283;DHT22;11810;51.178;3.878;2022-08-19T01:25:41;18.00;99.90
23283;DHT22;11810;51.178;3.878;2022-08-19T01:28:07;18.00;99.90
23283;DHT22;11810;51.178;3.878;2022-08-19T01:30:35;17.90;99.90
23283;DHT22;11810;51.178;3.878;2022-08-19T01:33:01;17.90;99.90
23283;DHT22;11810;51.178;3.878;2022-08-19T01:35:30;17.90;99.90
23283;DHT22;11810;51.178;3.878;2022-08-19T01:38:00;17.80;99.90
23283;DHT22;11810;51.178;3.878;2022-08-19T01:40:30;17.90;99.90
23283;DHT22;11810;51.178;3.878;2022-08-19T01:42:57;17.90;99.90
23283;DHT22;11810;51.178;3.878;2022-08-19T01:45:25;17.80;99.90
23283;DHT22;11810;51.178;3.878;2022-08-19T01:47:52;17.80;99.90
23283;DHT22;11810;51.178;3.878;2022-08-19T01:50:18;17.90;99.90
23283;DHT22;11810;51.178;3.878;2022-08-19T01:52:44;17.90;99.90
23283;DHT22;11810;51.178;3.878;2022-08-19T01:55:16;17.90;99.90
23283;DHT22;11810;51.178;3.878;2022-08-19T01:57:46;17.90;99.90
23283;DHT22;11810;51.178;3.878;2022-08-19T02:00:16;17.80;99.90
23283;DHT22;11810;51.178;3.878;2022-08-19T02:02:42;17.70;99.90
23283;DHT22;11810;51.178;3.878;2022-08-19T02:05:09;17.80;99.90
23283;DHT22;11810;51.178;3.878;2022-08-19T02:07:36;17.90;99.90
23283;DHT22;11810;51.178;3.878;2022-08-19T02:10:04;17.90;99.90
23283;DHT22;11810;51.178;3.878;2022-08-19T02:12:31;17.80;99.90
23283;DHT22;11810;51.178;3.878;2022-08-19T02:14:56;17.80;99.90
23283;DHT22;11810;51.178;3.878;2022-08-19T02:17:22;17.70;99.90
23283;DHT22;11810;51.178;3.878;2022-08-19T02:19:48;17.80;99.90
23283;DHT22;11810;51.178;3.878;2022-08-19T02:22:14;17.80;99.90
23283;DHT22;11810;51.178;3.878;2022-08-19T02:24:40;17.70;99.90
23283;DHT22;11810;51.178;3.878;2022-08-19T02:27:06;17.80;99.90
23283;DHT22;11810;51.178;3.878;2022-08-19T02:29:32;17.80;99.90
23283;DHT22;11810;51.178;3.878;2022-08-19T02:31:58;17.70;99.90
23283;DHT22;11810;51.178;3.878;2022-08-19T02:34:24;17.70;99.90
23283;DHT22;11810;51.178;3.878;2022-08-19T02:36:51;17.70;99.90
23283;DHT22;11810;51.178;3.878;2022-08-19T02:39:17;17.60;99.90
23283;DHT22;11810;51.178;3.878;2022-08-19T02:41:44;17.60;99.90
23283;DHT22;11810;51.178;3.878;2022-08-19T02:44:10;17.50;99.90
23283;DHT22;11810;51.178;3.878;2022-08-19T02:46:35;17.50;99.90
23283;DHT22;11810;51.178;3.878;2022-08-19T02:49:05;17.60;99.90
23283;DHT22;11810;51.178;3.878;2022-08-19T02:51:34;17.60;99.90
23283;DHT22;11810;51.178;3.878;2022-08-19T02:54:02;17.40;99.90
23283;DHT22;11810;51.178;3.878;2022-08-19T02:56:28;17.50;99.90
23283;DHT22;11810;51.178;3.878;2022-08-19T02:58:55;17.60;99.90
23283;DHT22;11810;51.178;3.878;2022-08-19T03:01:28;17.60;99.90
23283;DHT22;11810;51.178;3.878;2022-08-19T03:03:55;17.50;99.90
23283;DHT22;11810;51.178;3.878;2022-08-19T03:06:22;17.60;99.90
23283;DHT22;11810;51.178;3.878;2022-08-19T03:08:49;17.50;99.90
23283;DHT22;11810;51.178;3.878;2022-08-19T03:11:26;17.50;99.90
23283;DHT22;11810;51.178;3.878;2022-08-19T03:13:53;17.60;99.90
23283;DHT22;11810;51.178;3.878;2022-08-19T03:16:25;17.60;99.90
23283;DHT22;11810;51.178;3.878;2022-08-19T03:18:53;17.60;99.90
23283;DHT22;11810;51.178;3.878;2022-08-19T03:21:22;17.70;99.90
23283;DHT22;11810;51.178;3.878;2022-08-19T03:23:49;17.80;99.90
23283;DHT22;11810;51.178;3.878;2022-08-19T03:26:16;17.80;99.90
23283;DHT22;11810;51.178;3.878;2022-08-19T03:28:44;18.00;99.90
23283;DHT22;11810;51.178;3.878;2022-08-19T03:31:13;18.10;99.90
23283;DHT22;11810;51.178;3.878;2022-08-19T03:33:40;18.00;99.90
23283;DHT22;11810;51.178;3.878;2022-08-19T03:36:13;18.00;99.90
23283;DHT22;11810;51.178;3.878;2022-08-19T03:38:45;17.90;99.90
23283;DHT22;11810;51.178;3.878;2022-08-19T03:41:16;17.90;99.90
23283;DHT22;11810;51.178;3.878;2022-08-19T03:43:44;17.90;99.90
23283;DHT22;11810;51.178;3.878;2022-08-19T03:46:19;17.80;99.90
23283;DHT22;11810;51.178;3.878;2022-08-19T03:48:51;17.70;99.90
23283;DHT22;11810;51.178;3.878;2022-08-19T03:51:32;17.70;99.90
23283;DHT22;11810;51.178;3.878;2022-08-19T03:54:00;17.60;99.90
23283;DHT22;11810;51.178;3.878;2022-08-19T03:56:27;17.60;99.90
23283;DHT22;11810;51.178;3.878;2022-08-19T03:58:58;17.50;99.90
23283;DHT22;11810;51.178;3.878;2022-08-19T04:01:27;17.40;99.90
23283;DHT22;11810;51.178;3.878;2022-08-19T04:03:55;17.40;99.90
23283;DHT22;11810;51.178;3.878;2022-08-19T04:06:28;17.40;99.90
23283;DHT22;11810;51.178;3.878;2022-08-19T04:08:57;17.40;99.90
23283;DHT22;11810;51.178;3.878;2022-08-19T04:11:30;17.30;99.90
23283;DHT22;11810;51.178;3.878;2022-08-19T04:13:57;17.40;99.90
23283;DHT22;11810;51.178;3.878;2022-08-19T04:16:26;17.40;99.90
23283;DHT22;11810;51.178;3.878;2022-08-19T04:18:58;17.20;99.90
23283;DHT22;11810;51.178;3.878;2022-08-19T04:21:27;17.30;99.90
23283;DHT22;11810;51.178;3.878;2022-08-19T04:23:54;17.20;99.90
23283;DHT22;11810;51.178;3.878;2022-08-19T04:26:27;17.20;99.90
23283;DHT22;11810;51.178;3.878;2022-08-19T04:28:54;17.20;99.90
23283;DHT22;11810;51.178;3.878;2022-08-19T04:31:23;17.20;99.90
23283;DHT22;11810;51.178;3.878;2022-08-19T04:33:53;17.10;99.90
23283;DHT22;11810;51.178;3.878;2022-08-19T04:36:39;17.20;99.90
23283;DHT22;11810;51.178;3.878;2022-08-19T04:39:13;17.20;99.90
23283;DHT22;11810;51.178;3.878;2022-08-19T04:41:40;17.10;99.90
23283;DHT22;11810;51.178;3.878;2022-08-19T04:44:24;17.10;99.90
23283;DHT22;11810;51.178;3.878;2022-08-19T04:46:51;17.10;99.90
23283;DHT22;11810;51.178;3.878;2022-08-19T04:49:20;17.10;99.90
23283;DHT22;11810;51.178;3.878;2022-08-19T04:51:47;17.20;99.90
23283;DHT22;11810;51.178;3.878;2022-08-19T04:54:14;17.20;99.90
23283;DHT22;11810;51.178;3.878;2022-08-19T04:56:41;17.40;99.90
23283;DHT22;11810;51.178;3.878;2022-08-19T04:59:07;17.50;99.90
23283;DHT22;11810;51.178;3.878;2022-08-19T05:01:35;17.50;99.90
23283;DHT22;11810;51.178;3.878;2022-08-19T05:04:04;17.50;99.90
23283;DHT22;11810;51.178;3.878;2022-08-19T05:06:31;17.60;99.90
23283;DHT22;11810;51.178;3.878;2022-08-19T05:09:04;17.70;99.90
23283;DHT22;11810;51.178;3.878;2022-08-19T05:11:33;17.70;99.90
23283;DHT22;11810;51.178;3.878;2022-08-19T05:14:00;17.70;99.90
23283;DHT22;11810;51.178;3.878;2022-08-19T05:16:26;17.90;99.90
23283;DHT22;11810;51.178;3.878;2022-08-19T05:18:53;17.90;99.90
23283;DHT22;11810;51.178;3.878;2022-08-19T05:21:40;18.10;99.90
23283;DHT22;11810;51.178;3.878;2022-08-19T05:24:25;18.20;99.90
23283;DHT22;11810;51.178;3.878;2022-08-19T05:26:52;18.30;99.90
23283;DHT22;11810;51.178;3.878;2022-08-19T05:29:20;18.40;99.90
23283;DHT22;11810;51.178;3.878;2022-08-19T05:31:47;18.60;99.90
23283;DHT22;11810;51.178;3.878;2022-08-19T05:34:18;18.60;99.90
23283;DHT22;11810;51.178;3.878;2022-08-19T05:36:48;18.50;99.90
23283;DHT22;11810;51.178;3.878;2022-08-19T05:39:18;18.60;99.90
23283;DHT22;11810;51.178;3.878;2022-08-19T05:41:48;18.70;99.90
23283;DHT22;11810;51.178;3.878;2022-08-19T05:44:15;18.80;99.90
23283;DHT22;11810;51.178;3.878;2022-08-19T05:46:45;19.00;99.90
23283;DHT22;11810;51.178;3.878;2022-08-19T05:49:15;18.90;99.90
23283;DHT22;11810;51.178;3.878;2022-08-19T05:51:42;18.90;99.90
23283;DHT22;11810;51.178;3.878;2022-08-19T05:54:09;19.00;99.90
23283;DHT22;11810;51.178;3.878;2022-08-19T05:56:36;18.90;99.90
23283;DHT22;11810;51.178;3.878;2022-08-19T05:59:06;18.80;99.90
23283;DHT22;11810;51.178;3.878;2022-08-19T06:01:35;18.80;99.90
23283;DHT22;11810;51.178;3.878;2022-08-19T06:04:02;18.70;99.90
23283;DHT22;11810;51.178;3.878;2022-08-19T06:06:28;18.70;99.90
23283;DHT22;11810;51.178;3.878;2022-08-19T06:08:54;18.60;99.90
23283;DHT22;11810;51.178;3.878;2022-08-19T06:11:31;18.70;99.90
23283;DHT22;11810;51.178;3.878;2022-08-19T06:14:01;18.90;99.90
23283;DHT22;11810;51.178;3.878;2022-08-19T06:16:28;18.70;99.90
23283;DHT22;11810;51.178;3.878;2022-08-19T06:18:55;18.70;99.90
23283;DHT22;11810;51.178;3.878;2022-08-19T06:21:24;18.80;99.90
23283;DHT22;11810;51.178;3.878;2022-08-19T06:23:51;18.90;99.90
23283;DHT22;11810;51.178;3.878;2022-08-19T06:26:19;19.10;99.90
23283;DHT22;11810;51.178;3.878;2022-08-19T06:28:46;19.10;99.90
23283;DHT22;11810;51.178;3.878;2022-08-19T06:31:17;19.10;99.90
23283;DHT22;11810;51.178;3.878;2022-08-19T06:33:44;19.10;99.90
23283;DHT22;11810;51.178;3.878;2022-08-19T06:36:30;19.20;99.90
23283;DHT22;11810;51.178;3.878;2022-08-19T06:39:01;19.30;99.90
23283;DHT22;11810;51.178;3.878;2022-08-19T06:41:29;19.40;99.90
23283;DHT22;11810;51.178;3.878;2022-08-19T06:43:56;19.50;99.90
23283;DHT22;11810;51.178;3.878;2022-08-19T06:46:22;19.70;99.90
23283;DHT22;11810;51.178;3.878;2022-08-19T06:48:48;19.80;99.90
23283;DHT22;11810;51.178;3.878;2022-08-19T06:51:16;19.90;99.90
23283;DHT22;11810;51.178;3.878;2022-08-19T06:53:48;20.00;99.90
23283;DHT22;11810;51.178;3.878;2022-08-19T06:56:20;20.20;99.90
23283;DHT22;11810;51.178;3.878;2022-08-19T06:58:47;20.10;99.90
23283;DHT22;11810;51.178;3.878;2022-08-19T07:01:19;20.30;99.90
23283;DHT22;11810;51.178;3.878;2022-08-19T07:03:46;20.30;99.90
23283;DHT22;11810;51.178;3.878;2022-08-19T07:06:16;20.50;99.90
23283;DHT22;11810;51.178;3.878;2022-08-19T07:08:47;20.60;99.90
23283;DHT22;11810;51.178;3.878;2022-08-19T07:11:16;20.60;99.90
23283;DHT22;11810;51.178;3.878;2022-08-19T07:13:44;20.50;99.90
23283;DHT22;11810;51.178;3.878;2022-08-19T07:16:14;20.50;99.90
23283;DHT22;11810;51.178;3.878;2022-08-19T07:18:40;20.30;99.90
23283;DHT22;11810;51.178;3.878;2022-08-19T07:21:12;20.40;99.90
23283;DHT22;11810;51.178;3.878;2022-08-19T07:23:39;20.60;99.90
23283;DHT22;11810;51.178;3.878;2022-08-19T07:26:07;20.80;99.90
23283;DHT22;11810;51.178;3.878;2022-08-19T07:28:34;20.90;99.90
23283;DHT22;11810;51.178;3.878;2022-08-19T07:31:00;21.00;99.90
23283;DHT22;11810;51.178;3.878;2022-08-19T07:33:28;21.10;99.90
23283;DHT22;11810;51.178;3.878;2022-08-19T07:35:58;21.20;99.90
23283;DHT22;11810;51.178;3.878;2022-08-19T07:38:24;21.20;99.90
23283;DHT22;11810;51.178;3.878;2022-08-19T07:40:50;21.30;99.90
23283;DHT22;11810;51.178;3.878;2022-08-19T07:43:17;21.40;99.90
23283;DHT22;11810;51.178;3.878;2022-08-19T07:45:48;21.50;99.90
23283;DHT22;11810;51.178;3.878;2022-08-19T07:48:14;21.50;99.90
23283;DHT22;11810;51.178;3.878;2022-08-19T07:50:40;21.30;99.90
23283;DHT22;11810;51.178;3.878;2022-08-19T07:53:06;21.30;99.90
23283;DHT22;11810;51.178;3.878;2022-08-19T07:55:32;21.30;99.90
23283;DHT22;11810;51.178;3.878;2022-08-19T07:57:59;21.30;99.90
23283;DHT22;11810;51.178;3.878;2022-08-19T08:00:26;21.30;99.90
23283;DHT22;11810;51.178;3.878;2022-08-19T08:02:52;21.60;99.90
23283;DHT22;11810;51.178;3.878;2022-08-19T08:05:18;21.60;99.90
23283;DHT22;11810;51.178;3.878;2022-08-19T08:08:03;21.60;99.90
23283;DHT22;11810;51.178;3.878;2022-08-19T08:11:07;21.30;99.90
23283;DHT22;11810;51.178;3.878;2022-08-19T08:13:34;21.30;99.90
23283;DHT22;11810;51.178;3.878;2022-08-19T08:16:01;21.30;99.90
23283;DHT22;11810;51.178;3.878;2022-08-19T08:18:28;21.20;99.90
23283;DHT22;11810;51.178;3.878;2022-08-19T08:20:55;21.00;99.90
23283;DHT22;11810;51.178;3.878;2022-08-19T08:23:22;21.00;99.90
23283;DHT22;11810;51.178;3.878;2022-08-19T08:25:51;21.00;99.90
23283;DHT22;11810;51.178;3.878;2022-08-19T08:28:18;21.10;99.90
23283;DHT22;11810;51.178;3.878;2022-08-19T08:30:46;21.20;99.90
23283;DHT22;11810;51.178;3.878;2022-08-19T08:33:17;21.10;99.90
23283;DHT22;11810;51.178;3.878;2022-08-19T08:35:43;21.00;99.90
23283;DHT22;11810;51.178;3.878;2022-08-19T08:38:11;21.00;99.90
23283;DHT22;11810;51.178;3.878;2022-08-19T08:40:49;21.10;99.90
23283;DHT22;11810;51.178;3.878;2022-08-19T08:43:32;21.20;99.90
23283;DHT22;11810;51.178;3.878;2022-08-19T08:52:16;21.50;99.90
23283;DHT22;11810;51.178;3.878;2022-08-19T08:54:12;21.70;99.90
23283;DHT22;11810;51.178;3.878;2022-08-19T08:56:43;21.80;99.90
23283;DHT22;11810;51.178;3.878;2022-08-19T08:59:16;21.70;99.90
23283;DHT22;11810;51.178;3.878;2022-08-19T09:01:44;21.70;99.90
23283;DHT22;11810;51.178;3.878;2022-08-19T09:04:12;21.70;99.90
23283;DHT22;11810;51.178;3.878;2022-08-19T09:09:29;21.70;99.90
23283;DHT22;11810;51.178;3.878;2022-08-19T09:14:37;21.80;99.90
23283;DHT22;11810;51.178;3.878;2022-08-19T09:17:08;22.00;99.90
23283;DHT22;11810;51.178;3.878;2022-08-19T09:19:46;22.20;99.90
23283;DHT22;11810;51.178;3.878;2022-08-19T09:22:14;22.20;99.90
23283;DHT22;11810;51.178;3.878;2022-08-19T09:24:40;22.30;99.90
23283;DHT22;11810;51.178;3.878;2022-08-19T09:27:06;22.30;99.90
23283;DHT22;11810;51.178;3.878;2022-08-19T09:29:32;22.40;99.90
23283;DHT22;11810;51.178;3.878;2022-08-19T09:31:58;22.50;99.90
23283;DHT22;11810;51.178;3.878;2022-08-19T09:34:24;22.70;99.90
23283;DHT22;11810;51.178;3.878;2022-08-19T09:36:51;22.70;99.90
23283;DHT22;11810;51.178;3.878;2022-08-19T09:39:18;22.70;99.90
23283;DHT22;11810;51.178;3.878;2022-08-19T09:41:44;23.00;99.90
23283;DHT22;11810;51.178;3.878;2022-08-19T09:44:10;23.20;99.90
23283;DHT22;11810;51.178;3.878;2022-08-19T09:46:38;23.30;99.90
23283;DHT22;11810;51.178;3.878;2022-08-19T09:49:04;23.60;99.90
23283;DHT22;11810;51.178;3.878;2022-08-19T09:51:32;23.80;99.90
23283;DHT22;11810;51.178;3.878;2022-08-19T09:54:01;23.90;99.90
23283;DHT22;11810;51.178;3.878;2022-08-19T09:56:28;24.10;99.90
23283;DHT22;11810;51.178;3.878;2022-08-19T09:58:54;23.90;99.90
23283;DHT22;11810;51.178;3.878;2022-08-19T10:01:24;23.80;99.90
23283;DHT22;11810;51.178;3.878;2022-08-19T10:03:53;23.50;99.90
23283;DHT22;11810;51.178;3.878;2022-08-19T10:06:22;23.70;99.90
23283;DHT22;11810;51.178;3.878;2022-08-19T10:08:49;23.90;99.90
23283;DHT22;11810;51.178;3.878;2022-08-19T10:11:15;24.10;99.90
23283;DHT22;11810;51.178;3.878;2022-08-19T10:13:43;24.00;99.90
23283;DHT22;11810;51.178;3.878;2022-08-19T10:16:13;24.10;99.90
23283;DHT22;11810;51.178;3.878;2022-08-19T10:18:40;23.90;99.90
23283;DHT22;11810;51.178;3.878;2022-08-19T10:23:37;24.20;99.90
23283;DHT22;11810;51.178;3.878;2022-08-19T10:26:05;24.20;99.90
23283;DHT22;11810;51.178;3.878;2022-08-19T10:28:33;24.30;99.90
23283;DHT22;11810;51.178;3.878;2022-08-19T10:31:04;24.30;99.90
23283;DHT22;11810;51.178;3.878;2022-08-19T10:33:32;24.40;99.90
23283;DHT22;11810;51.178;3.878;2022-08-19T10:36:03;24.30;99.90
23283;DHT22;11810;51.178;3.878;2022-08-19T10:38:30;24.10;99.90
23283;DHT22;11810;51.178;3.878;2022-08-19T10:40:57;24.00;99.90
23283;DHT22;11810;51.178;3.878;2022-08-19T10:43:23;23.80;99.90
23283;DHT22;11810;51.178;3.878;2022-08-19T10:45:54;23.80;99.90
23283;DHT22;11810;51.178;3.878;2022-08-19T10:48:31;24.00;99.90
23283;DHT22;11810;51.178;3.878;2022-08-19T10:50:58;24.20;99.90
23283;DHT22;11810;51.178;3.878;2022-08-19T10:53:42;24.50;99.90
23283;DHT22;11810;51.178;3.878;2022-08-19T10:56:08;24.90;99.90
23283;DHT22;11810;51.178;3.878;2022-08-19T10:58:52;25.40;99.90
23283;DHT22;11810;51.178;3.878;2022-08-19T11:01:19;26.10;99.90
23283;DHT22;11810;51.178;3.878;2022-08-19T11:03:44;26.20;99.90
23283;DHT22;11810;51.178;3.878;2022-08-19T11:06:11;26.30;99.90
23283;DHT22;11810;51.178;3.878;2022-08-19T11:08:37;26.40;99.90
23283;DHT22;11810;51.178;3.878;2022-08-19T11:11:05;26.50;99.90
23283;DHT22;11810;51.178;3.878;2022-08-19T11:13:34;25.90;99.90
23283;DHT22;11810;51.178;3.878;2022-08-19T11:16:10;25.60;99.90
23283;DHT22;11810;51.178;3.878;2022-08-19T11:18:41;25.50;99.90
23283;DHT22;11810;51.178;3.878;2022-08-19T11:21:17;25.60;99.90
23283;DHT22;11810;51.178;3.878;2022-08-19T11:23:45;25.70;99.90
23283;DHT22;11810;51.178;3.878;2022-08-19T11:26:12;25.30;99.90
23283;DHT22;11810;51.178;3.878;2022-08-19T11:28:39;25.40;99.90
23283;DHT22;11810;51.178;3.878;2022-08-19T11:31:10;25.50;99.90
23283;DHT22;11810;51.178;3.878;2022-08-19T11:33:37;25.70;99.90
23283;DHT22;11810;51.178;3.878;2022-08-19T11:36:03;26.00;99.90
23283;DHT22;11810;51.178;3.878;2022-08-19T11:38:29;26.20;99.90
23283;DHT22;11810;51.178;3.878;2022-08-19T11:41:01;26.20;99.90
23283;DHT22;11810;51.178;3.878;2022-08-19T11:43:28;25.90;99.90
23283;DHT22;11810;51.178;3.878;2022-08-19T11:45:54;25.80;99.90
23283;DHT22;11810;51.178;3.878;2022-08-19T11:48:21;25.80;99.90
23283;DHT22;11810;51.178;3.878;2022-08-19T11:50:51;26.00;99.90
23283;DHT22;11810;51.178;3.878;2022-08-19T11:53:19;25.90;99.90
23283;DHT22;11810;51.178;3.878;2022-08-19T11:55:49;26.00;99.90
23283;DHT22;11810;51.178;3.878;2022-08-19T11:58:16;26.10;99.90
23283;DHT22;11810;51.178;3.878;2022-08-19T12:00:43;26.20;99.90
23283;DHT22;11810;51.178;3.878;2022-08-19T12:03:12;26.40;99.90
23283;DHT22;11810;51.178;3.878;2022-08-19T12:05:39;26.70;99.90
23283;DHT22;11810;51.178;3.878;2022-08-19T12:08:06;27.10;99.90
23283;DHT22;11810;51.178;3.878;2022-08-19T12:10:32;27.80;99.90
23283;DHT22;11810;51.178;3.878;2022-08-19T12:12:58;28.00;99.90
23283;DHT22;11810;51.178;3.878;2022-08-19T12:15:26;28.30;99.90
23283;DHT22;11810;51.178;3.878;2022-08-19T12:17:54;27.90;99.90
23283;DHT22;11810;51.178;3.878;2022-08-19T12:20:23;27.30;99.90
23283;DHT22;11810;51.178;3.878;2022-08-19T12:22:50;27.00;99.90
23283;DHT22;11810;51.178;3.878;2022-08-19T12:25:16;26.30;99.90
23283;DHT22;11810;51.178;3.878;2022-08-19T12:27:42;26.20;99.90
23283;DHT22;11810;51.178;3.878;2022-08-19T12:30:10;26.20;99.90
23283;DHT22;11810;51.178;3.878;2022-08-19T12:32:37;26.10;99.90
23283;DHT22;11810;51.178;3.878;2022-08-19T12:35:04;26.60;99.90
23283;DHT22;11810;51.178;3.878;2022-08-19T12:37:30;27.40;99.90
23283;DHT22;11810;51.178;3.878;2022-08-19T12:39:58;28.50;99.90
23283;DHT22;11810;51.178;3.878;2022-08-19T12:42:24;28.80;99.90
23283;DHT22;11810;51.178;3.878;2022-08-19T12:44:50;29.30;99.90
23283;DHT22;11810;51.178;3.878;2022-08-19T12:47:17;29.40;99.90
23283;DHT22;11810;51.178;3.878;2022-08-19T12:49:44;30.10;99.90
23283;DHT22;11810;51.178;3.878;2022-08-19T12:52:11;31.10;99.90
23283;DHT22;11810;51.178;3.878;2022-08-19T12:54:40;31.70;99.90
23283;DHT22;11810;51.178;3.878;2022-08-19T12:57:07;32.00;99.90
23283;DHT22;11810;51.178;3.878;2022-08-19T12:59:35;31.90;99.90
23283;DHT22;11810;51.178;3.878;2022-08-19T13:02:05;31.60;99.90
23283;DHT22;11810;51.178;3.878;2022-08-19T13:04:32;31.00;99.90
23283;DHT22;11810;51.178;3.878;2022-08-19T13:07:01;30.30;99.90
23283;DHT22;11810;51.178;3.878;2022-08-19T13:09:27;30.00;99.90
23283;DHT22;11810;51.178;3.878;2022-08-19T13:11:52;29.10;99.90
23283;DHT22;11810;51.178;3.878;2022-08-19T13:14:18;28.80;99.90
23283;DHT22;11810;51.178;3.878;2022-08-19T13:16:44;28.70;99.90
23283;DHT22;11810;51.178;3.878;2022-08-19T13:19:10;28.60;99.90
23283;DHT22;11810;51.178;3.878;2022-08-19T13:21:38;28.20;99.90
23283;DHT22;11810;51.178;3.878;2022-08-19T13:24:05;27.70;99.90
23283;DHT22;11810;51.178;3.878;2022-08-19T13:26:31;27.50;99.90
23283;DHT22;11810;51.178;3.878;2022-08-19T13:28:57;26.90;99.90
23283;DHT22;11810;51.178;3.878;2022-08-19T13:31:43;26.70;99.90
23283;DHT22;11810;51.178;3.878;2022-08-19T13:34:31;25.60;99.90
23283;DHT22;11810;51.178;3.878;2022-08-19T13:37:00;23.90;99.90
23283;DHT22;11810;51.178;3.878;2022-08-19T13:39:29;22.70;99.90
23283;DHT22;11810;51.178;3.878;2022-08-19T13:41:55;22.10;99.90
23283;DHT22;11810;51.178;3.878;2022-08-19T13:44:21;21.70;99.90
23283;DHT22;11810;51.178;3.878;2022-08-19T13:46:48;21.60;99.90
23283;DHT22;11810;51.178;3.878;2022-08-19T13:49:16;21.30;99.90
23283;DHT22;11810;51.178;3.878;2022-08-19T13:51:43;21.20;99.90
23283;DHT22;11810;51.178;3.878;2022-08-19T13:54:10;21.00;99.90
23283;DHT22;11810;51.178;3.878;2022-08-19T13:56:41;21.10;99.90
23283;DHT22;11810;51.178;3.878;2022-08-19T13:59:08;21.30;99.90
23283;DHT22;11810;51.178;3.878;2022-08-19T14:01:34;21.60;99.90
23283;DHT22;11810;51.178;3.878;2022-08-19T14:04:00;21.90;99.90
23283;DHT22;11810;51.178;3.878;2022-08-19T14:06:26;22.20;99.90
23283;DHT22;11810;51.178;3.878;2022-08-19T14:08:52;22.60;99.90
23283;DHT22;11810;51.178;3.878;2022-08-19T14:11:19;23.00;99.90
23283;DHT22;11810;51.178;3.878;2022-08-19T14:13:45;23.40;99.90
23283;DHT22;11810;51.178;3.878;2022-08-19T14:16:13;23.90;99.90
23283;DHT22;11810;51.178;3.878;2022-08-19T14:18:39;24.10;99.90
23283;DHT22;11810;51.178;3.878;2022-08-19T14:21:06;24.40;99.90
23283;DHT22;11810;51.178;3.878;2022-08-19T14:23:33;24.40;99.90
23283;DHT22;11810;51.178;3.878;2022-08-19T14:26:11;24.80;99.90
23283;DHT22;11810;51.178;3.878;2022-08-19T14:28:38;25.20;99.90
23283;DHT22;11810;51.178;3.878;2022-08-19T14:31:06;25.30;99.90
23283;DHT22;11810;51.178;3.878;2022-08-19T14:33:32;25.10;99.90
23283;DHT22;11810;51.178;3.878;2022-08-19T14:35:58;24.90;99.90
23283;DHT22;11810;51.178;3.878;2022-08-19T14:38:26;25.10;99.90
23283;DHT22;11810;51.178;3.878;2022-08-19T14:40:52;25.10;99.90
23283;DHT22;11810;51.178;3.878;2022-08-19T14:43:18;24.80;99.90
23283;DHT22;11810;51.178;3.878;2022-08-19T14:45:44;24.70;99.90
23283;DHT22;11810;51.178;3.878;2022-08-19T14:48:11;24.60;99.90
23283;DHT22;11810;51.178;3.878;2022-08-19T14:50:38;24.60;99.90
23283;DHT22;11810;51.178;3.878;2022-08-19T14:53:07;24.60;99.90
23283;DHT22;11810;51.178;3.878;2022-08-19T14:55:34;24.40;99.90
23283;DHT22;11810;51.178;3.878;2022-08-19T14:58:01;24.50;99.90
23283;DHT22;11810;51.178;3.878;2022-08-19T15:00:27;24.60;99.90
23283;DHT22;11810;51.178;3.878;2022-08-19T15:02:53;25.20;99.90
23283;DHT22;11810;51.178;3.878;2022-08-19T15:05:20;25.80;99.90
23283;DHT22;11810;51.178;3.878;2022-08-19T15:07:46;25.90;99.90
23283;DHT22;11810;51.178;3.878;2022-08-19T15:10:14;25.90;99.90
23283;DHT22;11810;51.178;3.878;2022-08-19T15:12:40;25.90;99.90
23283;DHT22;11810;51.178;3.878;2022-08-19T15:15:13;25.80;99.90
23283;DHT22;11810;51.178;3.878;2022-08-19T15:17:43;25.60;99.90
23283;DHT22;11810;51.178;3.878;2022-08-19T15:20:11;25.00;99.90
23283;DHT22;11810;51.178;3.878;2022-08-19T15:22:38;24.60;99.90
23283;DHT22;11810;51.178;3.878;2022-08-19T15:25:07;24.60;99.90
23283;DHT22;11810;51.178;3.878;2022-08-19T15:27:34;24.70;99.90
23283;DHT22;11810;51.178;3.878;2022-08-19T15:30:00;24.70;99.90
23283;DHT22;11810;51.178;3.878;2022-08-19T15:32:26;24.90;99.90
23283;DHT22;11810;51.178;3.878;2022-08-19T15:34:53;24.80;99.90
23283;DHT22;11810;51.178;3.878;2022-08-19T15:37:20;24.90;99.90
23283;DHT22;11810;51.178;3.878;2022-08-19T15:39:49;24.90;99.90
23283;DHT22;11810;51.178;3.878;2022-08-19T15:42:14;25.00;99.90
23283;DHT22;11810;51.178;3.878;2022-08-19T15:44:40;25.30;99.90
23283;DHT22;11810;51.178;3.878;2022-08-19T15:47:06;25.50;99.90
23283;DHT22;11810;51.178;3.878;2022-08-19T15:49:32;25.20;99.90
23283;DHT22;11810;51.178;3.878;2022-08-19T15:51:58;25.20;99.90